Fort Drum, NY
on Wednesday, December 6, 2017

Wednesday
       
Previous Day Next Day
Daily Summary
 ActualAverageRecord
Temperature
Mean Temperature °F °C °F °C  
Max Temperature 37°F 3°C 34°F 1°C 68°F 20°C (2001)
Min Temperature 30°F -1°C 20°F -6°C 0°F -17°C (2007)
Degree Days
Heating Degree Days 32    
Moisture
Dew Point 27°F -3°C   
Average Humidity 78    
Maximum Humidity 100    
Minimum Humidity 51    
Precipitation
Precipitation 0.00 in / 0.00 cm in / cm in / cm ()
Snow
Snow 0.00 in / 0.00 cm in / cm in / cm ()
Snow Depth 0.00 in / 0.00 cm   
Wind
Wind Speed 14 mph / 23 km/h   
Max Wind Speed 26 mph / 42 km/h   
Max Gust Speed 37 mph / 60 km/h   
Visibility 7 miles / 11 kilometers   
Events Rain , Snow   
Averages and records for this station are not official NWS values.
Key: T is trace of precipitation, MM is missing value
Source: NWS Daily Summary
Seasonal Weather Averages
Time(EST)TemperatureDew PointHumidity Pressure Visibility Wind DirectionWind SpeedGust SpeedPrecipitationEvents Conditions
12:56 AM 37.8°F 3.2°C 22.6°F -5.2°C 54% 29.76 in / 1007.6 hPa 10.0 miles / 16.1 kilometers WSW 19.6 mph / 31.5 km/h 35.7 mph / 57.4 km/h N/A   Clear
1:11 AM 37.4°F 3.0°C 23.0°F -5.0°C 56% 29.75 in / 1007.3 hPa 10.0 miles / 16.1 kilometers WSW 15.0 mph / 24.1 km/h 29.9 mph / 48.2 km/h N/A   Scattered Clouds
1:56 AM 36.5°F 2.5°C 23.2°F -4.9°C 59% 29.77 in / 1008.0 hPa 10.0 miles / 16.1 kilometers WSW 18.4 mph / 29.6 km/h 36.8 mph / 59.3 km/h N/A   Overcast
2:56 AM 35.2°F 1.8°C 18.5°F -7.5°C 51% 29.81 in / 1009.4 hPa 10.0 miles / 16.1 kilometers WSW 18.4 mph / 29.6 km/h 29.9 mph / 48.2 km/h N/A   Mostly Cloudy
3:30 AM 35.6°F 2.0°C 21.2°F -6.0°C 56% 29.81 in / 1009.4 hPa 10.0 miles / 16.1 kilometers WSW 11.5 mph / 18.5 km/h 20.7 mph / 33.3 km/h N/A Rain Light Rain
3:36 AM 35.6°F 2.0°C 21.2°F -6.0°C 56% 29.83 in / 1009.9 hPa 10.0 miles / 16.1 kilometers West 12.7 mph / 20.4 km/h 21.9 mph / 35.2 km/h N/A Rain Light Rain
3:40 AM 35.6°F 2.0°C 21.2°F -6.0°C 56% 29.83 in / 1010.2 hPa 10.0 miles / 16.1 kilometers West 9.2 mph / 14.8 km/h 21.9 mph / 35.2 km/h N/A   Overcast
3:56 AM 35.1°F 1.7°C 21.0°F -6.1°C 57% 29.83 in / 1009.9 hPa 10.0 miles / 16.1 kilometers West 11.5 mph / 18.5 km/h 17.3 mph / 27.8 km/h 0.00 in / 0.0 cm   Mostly Cloudy
4:16 AM 35.6°F 2.0°C 21.2°F -6.0°C 56% 29.83 in / 1009.9 hPa 10.0 miles / 16.1 kilometers West 13.8 mph / 22.2 km/h 24.2 mph / 38.9 km/h N/A Rain Light Rain
4:22 AM 35.6°F 2.0°C 21.2°F -6.0°C 56% 29.83 in / 1010.2 hPa 10.0 miles / 16.1 kilometers West 20.7 mph / 33.3 km/h 29.9 mph / 48.2 km/h N/A Rain Light Rain
4:28 AM 35.6°F 2.0°C 21.2°F -6.0°C 56% 29.83 in / 1010.2 hPa 10.0 miles / 16.1 kilometers West 17.3 mph / 27.8 km/h 29.9 mph / 48.2 km/h N/A Snow Light Snow
4:34 AM 35.6°F 2.0°C 21.2°F -6.0°C 56% 29.81 in / 1009.4 hPa 10.0 miles / 16.1 kilometers WSW 18.4 mph / 29.6 km/h 26.5 mph / 42.6 km/h N/A Rain Light Rain
4:40 AM 33.8°F 1.0°C 23.0°F -5.0°C 65% 29.81 in / 1009.4 hPa 10.0 miles / 16.1 kilometers WSW 13.8 mph / 22.2 km/h 26.5 mph / 42.6 km/h N/A Snow Light Snow
4:46 AM 33.8°F 1.0°C 23.0°F -5.0°C 65% 29.81 in / 1009.4 hPa 10.0 miles / 16.1 kilometers WSW 13.8 mph / 22.2 km/h 21.9 mph / 35.2 km/h N/A Snow Light Snow
4:51 AM 33.8°F 1.0°C 23.0°F -5.0°C 65% 29.81 in / 1009.4 hPa 9.0 miles / 14.5 kilometers West 13.8 mph / 22.2 km/h 21.9 mph / 35.2 km/h N/A Snow Light Snow
4:56 AM 34.2°F 1.2°C 23.2°F -4.9°C 64% 29.81 in / 1009.4 hPa 7.0 miles / 11.3 kilometers WSW 18.4 mph / 29.6 km/h 25.3 mph / 40.7 km/h 0.00 in / 0.0 cm Snow Light Snow
5:02 AM 33.8°F 1.0°C 24.8°F -4.0°C 70% 29.81 in / 1009.4 hPa 6.0 miles / 9.7 kilometers WSW 18.4 mph / 29.6 km/h 27.6 mph / 44.4 km/h N/A Snow Light Snow
5:08 AM 33.8°F 1.0°C 26.6°F -3.0°C 75% 29.81 in / 1009.4 hPa 5.0 miles / 8.0 kilometers WSW 17.3 mph / 27.8 km/h 27.6 mph / 44.4 km/h N/A Snow Light Snow
5:13 AM 33.8°F 1.0°C 26.6°F -3.0°C 75% 29.81 in / 1009.4 hPa 5.0 miles / 8.0 kilometers West 12.7 mph / 20.4 km/h 26.5 mph / 42.6 km/h N/A Snow Light Snow
5:19 AM 33.8°F 1.0°C 24.8°F -4.0°C 70% 29.83 in / 1009.9 hPa 10.0 miles / 16.1 kilometers West 12.7 mph / 20.4 km/h 23.0 mph / 37.0 km/h N/A Snow Light Snow
5:25 AM 33.8°F 1.0°C 24.8°F -4.0°C 70% 29.83 in / 1009.9 hPa 9.0 miles / 14.5 kilometers West 17.3 mph / 27.8 km/h 24.2 mph / 38.9 km/h N/A Snow Light Snow
5:30 AM 33.8°F 1.0°C 24.8°F -4.0°C 70% 29.83 in / 1009.9 hPa 10.0 miles / 16.1 kilometers WSW 15.0 mph / 24.1 km/h 24.2 mph / 38.9 km/h N/A Snow Light Snow
5:36 AM 33.8°F 1.0°C 24.8°F -4.0°C 70% 29.84 in / 1010.3 hPa 10.0 miles / 16.1 kilometers West 12.7 mph / 20.4 km/h 25.3 mph / 40.7 km/h N/A Rain Light Rain
5:42 AM 33.8°F 1.0°C 24.8°F -4.0°C 70% 29.84 in / 1010.3 hPa 10.0 miles / 16.1 kilometers West 13.8 mph / 22.2 km/h 21.9 mph / 35.2 km/h N/A Rain Light Rain
5:48 AM 33.8°F 1.0°C 24.8°F -4.0°C 70% 29.84 in / 1010.3 hPa 9.0 miles / 14.5 kilometers West 9.2 mph / 14.8 km/h 21.9 mph / 35.2 km/h N/A Snow Light Snow
5:54 AM 32.0°F 0.0°C 26.6°F -3.0°C 80% 29.84 in / 1010.3 hPa 6.0 miles / 9.7 kilometers West 13.8 mph / 22.2 km/h 24.2 mph / 38.9 km/h N/A Snow Light Snow
5:56 AM 32.5°F 0.3°C 26.1°F -3.3°C 77% 29.84 in / 1010.3 hPa 6.0 miles / 9.7 kilometers West 11.5 mph / 18.5 km/h 24.2 mph / 38.9 km/h 0.00 in / 0.0 cm Snow Light Snow
6:01 AM 32.0°F 0.0°C 26.6°F -3.0°C 80% 29.84 in / 1010.3 hPa 6.0 miles / 9.7 kilometers West 12.7 mph / 20.4 km/h 24.2 mph / 38.9 km/h N/A Snow Light Snow
6:06 AM 32.0°F 0.0°C 26.6°F -3.0°C 80% 29.85 in / 1010.7 hPa 7.0 miles / 11.3 kilometers West 10.4 mph / 16.7 km/h 23.0 mph / 37.0 km/h N/A Snow Light Snow
6:11 AM 32.0°F 0.0°C 24.8°F -4.0°C 75% 29.84 in / 1010.3 hPa 8.0 miles / 12.9 kilometers West 11.5 mph / 18.5 km/h 18.4 mph / 29.6 km/h N/A Snow Light Snow
6:16 AM 32.0°F 0.0°C 24.8°F -4.0°C 75% 29.84 in / 1010.3 hPa 9.0 miles / 14.5 kilometers WSW 10.4 mph / 16.7 km/h 18.4 mph / 29.6 km/h N/A Snow Light Snow
6:22 AM 33.8°F 1.0°C 24.8°F -4.0°C 70% 29.85 in / 1010.6 hPa 10.0 miles / 16.1 kilometers SW 12.7 mph / 20.4 km/h 19.6 mph / 31.5 km/h N/A Snow Light Snow
6:28 AM 33.8°F 1.0°C 26.6°F -3.0°C 75% 29.85 in / 1010.6 hPa 8.0 miles / 12.9 kilometers WSW 16.1 mph / 25.9 km/h 24.2 mph / 38.9 km/h N/A Snow Light Snow
6:33 AM 33.8°F 1.0°C 26.6°F -3.0°C 75% 29.85 in / 1010.6 hPa 8.0 miles / 12.9 kilometers WSW 13.8 mph / 22.2 km/h 24.2 mph / 38.9 km/h N/A Snow Light Snow
6:39 AM 33.8°F 1.0°C 24.8°F -4.0°C 70% 29.85 in / 1010.6 hPa 10.0 miles / 16.1 kilometers WSW 16.1 mph / 25.9 km/h 24.2 mph / 38.9 km/h N/A Rain Light Rain
6:44 AM 33.8°F 1.0°C 26.6°F -3.0°C 75% 29.85 in / 1010.6 hPa 7.0 miles / 11.3 kilometers West 12.7 mph / 20.4 km/h 20.7 mph / 33.3 km/h N/A Snow Light Snow
6:46 AM 32.0°F 0.0°C 26.6°F -3.0°C 80% 29.85 in / 1010.7 hPa 5.0 miles / 8.0 kilometers West 12.7 mph / 20.4 km/h 20.7 mph / 33.3 km/h N/A Snow Light Snow
6:51 AM 32.0°F 0.0°C 28.4°F -2.0°C 87% 29.85 in / 1010.7 hPa 1.6 miles / 2.6 kilometers WSW 15.0 mph / 24.1 km/h - N/A Snow Light Snow
6:56 AM 31.3°F -0.4°C 28.2°F -2.1°C 88% 29.86 in / 1011.0 hPa 2.8 miles / 4.4 kilometers WSW 12.7 mph / 20.4 km/h 19.6 mph / 31.5 km/h 0.00 in / 0.0 cm Snow Light Snow
7:01 AM 32.0°F 0.0°C 28.4°F -2.0°C 87% 29.86 in / 1011.0 hPa 8.0 miles / 12.9 kilometers WSW 11.5 mph / 18.5 km/h 19.6 mph / 31.5 km/h N/A Snow Light Snow
7:06 AM 32.0°F 0.0°C 28.4°F -2.0°C 87% 29.86 in / 1011.0 hPa 10.0 miles / 16.1 kilometers WSW 12.7 mph / 20.4 km/h 19.6 mph / 31.5 km/h N/A Snow Light Snow
7:11 AM 32.0°F 0.0°C 26.6°F -3.0°C 80% 29.85 in / 1010.7 hPa 8.0 miles / 12.9 kilometers West 11.5 mph / 18.5 km/h 19.6 mph / 31.5 km/h N/A Snow Light Snow
7:16 AM 30.2°F -1.0°C 28.4°F -2.0°C 93% 29.85 in / 1010.7 hPa 3.0 miles / 4.8 kilometers WSW 12.7 mph / 20.4 km/h 19.6 mph / 31.5 km/h N/A Snow Light Snow
7:21 AM 30.2°F -1.0°C 28.4°F -2.0°C 93% 29.85 in / 1010.7 hPa 1.6 miles / 2.6 kilometers WSW 9.2 mph / 14.8 km/h 19.6 mph / 31.5 km/h N/A Snow Blowing Snow
7:31 AM 30.2°F -1.0°C 28.4°F -2.0°C 93% 29.85 in / 1010.7 hPa 8.0 miles / 12.9 kilometers West 5.8 mph / 9.3 km/h - N/A Snow Light Snow
7:33 AM 30.2°F -1.0°C 28.4°F -2.0°C 93% 29.85 in / 1010.7 hPa 9.0 miles / 14.5 kilometers West 5.8 mph / 9.3 km/h - N/A Snow Light Snow
7:43 AM 30.2°F -1.0°C 28.4°F -2.0°C 93% 29.85 in / 1010.7 hPa 0.9 miles / 1.4 kilometers SW 11.5 mph / 18.5 km/h - N/A Snow Light Snow
7:48 AM 32.0°F 0.0°C 28.4°F -2.0°C 87% 29.85 in / 1010.7 hPa 0.8 miles / 1.2 kilometers SSW 11.5 mph / 18.5 km/h - N/A Snow Light Snow
7:53 AM 32.0°F 0.0°C 28.4°F -2.0°C 87% 29.85 in / 1010.7 hPa 1.6 miles / 2.6 kilometers SSW 10.4 mph / 16.7 km/h - N/A Snow Light Snow
7:56 AM 31.5°F -0.3°C 27.7°F -2.4°C 86% 29.85 in / 1010.7 hPa 3.0 miles / 4.8 kilometers SSW 11.5 mph / 18.5 km/h - 0.00 in / 0.0 cm Snow Light Snow
8:06 AM 32.0°F 0.0°C 26.6°F -3.0°C 80% 29.85 in / 1010.7 hPa 10.0 miles / 16.1 kilometers SSW 11.5 mph / 18.5 km/h - N/A Snow Light Snow
8:26 AM 32.0°F 0.0°C 26.6°F -3.0°C 80% 29.85 in / 1010.7 hPa 6.0 miles / 9.7 kilometers WSW 15.0 mph / 24.1 km/h 20.7 mph / 33.3 km/h N/A Snow Light Snow
8:36 AM 33.8°F 1.0°C 23.0°F -5.0°C 65% 29.85 in / 1010.7 hPa 10.0 miles / 16.1 kilometers WSW 13.8 mph / 22.2 km/h 24.2 mph / 38.9 km/h N/A Snow Light Snow
8:40 AM 33.8°F 1.0°C 23.0°F -5.0°C 65% 29.85 in / 1010.7 hPa 10.0 miles / 16.1 kilometers WSW 11.5 mph / 18.5 km/h - N/A   Mostly Cloudy
8:44 AM 33.8°F 1.0°C 21.2°F -6.0°C 60% 29.85 in / 1010.7 hPa 10.0 miles / 16.1 kilometers WSW 17.3 mph / 27.8 km/h 24.2 mph / 38.9 km/h N/A Rain Light Rain
8:56 AM 34.0°F 1.1°C 21.6°F -5.8°C 60% 29.85 in / 1010.8 hPa 10.0 miles / 16.1 kilometers WSW 10.4 mph / 16.7 km/h 21.9 mph / 35.2 km/h 0.00 in / 0.0 cm Rain Light Rain
9:03 AM 33.8°F 1.0°C 21.2°F -6.0°C 60% 29.85 in / 1010.8 hPa 10.0 miles / 16.1 kilometers WSW 15.0 mph / 24.1 km/h 27.6 mph / 44.4 km/h N/A   Scattered Clouds
9:56 AM 35.6°F 2.0°C 21.2°F -6.0°C 56% 29.83 in / 1010.0 hPa 7.0 miles / 11.3 kilometers WSW 16.1 mph / 25.9 km/h 32.2 mph / 51.9 km/h N/A   Scattered Clouds
10:58 AM 33.8°F 1.0°C 23.0°F -5.0°C 65% 29.82 in / 1009.7 hPa 10.0 miles / 16.1 kilometers SW 23.0 mph / 37.0 km/h 32.2 mph / 51.9 km/h N/A   Mostly Cloudy
11:58 AM 33.8°F 1.0°C 21.2°F -6.0°C 60% 29.80 in / 1009.0 hPa 10.0 miles / 16.1 kilometers SW 19.6 mph / 31.5 km/h 33.4 mph / 53.7 km/h N/A   Scattered Clouds
12:01 PM 33.8°F 1.0°C 21.2°F -6.0°C 60% 29.82 in / 1009.8 hPa 10.0 miles / 16.1 kilometers SW 19.6 mph / 31.5 km/h 33.4 mph / 53.7 km/h N/A   Scattered Clouds
12:47 PM 33.8°F 1.0°C 21.2°F -6.0°C 60% 29.81 in / 1009.5 hPa 10.0 miles / 16.1 kilometers SW 21.9 mph / 35.2 km/h 35.7 mph / 57.4 km/h N/A Rain Light Rain
12:53 PM 33.8°F 1.0°C 21.2°F -6.0°C 60% 29.80 in / 1009.1 hPa 10.0 miles / 16.1 kilometers SW 18.4 mph / 29.6 km/h 28.8 mph / 46.3 km/h N/A   Scattered Clouds
12:56 PM 34.7°F 1.5°C 21.0°F -6.1°C 57% 29.81 in / 1009.4 hPa 10.0 miles / 16.1 kilometers SW 18.4 mph / 29.6 km/h 28.8 mph / 46.3 km/h 0.00 in / 0.0 cm   Partly Cloudy
1:48 PM 33.8°F 1.0°C 21.2°F -6.0°C 60% 29.80 in / 1009.1 hPa 10.0 miles / 16.1 kilometers SW 26.5 mph / 42.6 km/h 33.4 mph / 53.7 km/h N/A Rain Light Rain
1:49 PM 33.8°F 1.0°C 21.2°F -6.0°C 60% 29.80 in / 1009.1 hPa 10.0 miles / 16.1 kilometers SW 26.5 mph / 42.6 km/h 33.4 mph / 53.7 km/h N/A   Clear
1:50 PM 33.8°F 1.0°C 21.2°F -6.0°C 60% 29.80 in / 1009.1 hPa 10.0 miles / 16.1 kilometers SW 21.9 mph / 35.2 km/h 33.4 mph / 53.7 km/h N/A Rain Light Rain
1:55 PM 33.8°F 1.0°C 21.2°F -6.0°C 60% 29.80 in / 1009.1 hPa 10.0 miles / 16.1 kilometers SW 19.6 mph / 31.5 km/h 33.4 mph / 53.7 km/h N/A   Clear
1:56 PM 34.3°F 1.3°C 21.6°F -5.8°C 60% 29.80 in / 1009.1 hPa 10.0 miles / 16.1 kilometers SW 18.4 mph / 29.6 km/h 33.4 mph / 53.7 km/h 0.00 in / 0.0 cm   Clear
1:57 PM 33.8°F 1.0°C 21.2°F -6.0°C 60% 29.80 in / 1009.1 hPa 10.0 miles / 16.1 kilometers SW 20.7 mph / 33.3 km/h 33.4 mph / 53.7 km/h N/A Rain Light Rain
2:05 PM 33.8°F 1.0°C 21.2°F -6.0°C 60% 29.80 in / 1009.1 hPa 10.0 miles / 16.1 kilometers SW 16.1 mph / 25.9 km/h 31.1 mph / 50.0 km/h N/A   Scattered Clouds
2:56 PM 34.7°F 1.5°C 20.1°F -6.6°C 55% 29.80 in / 1009.1 hPa 10.0 miles / 16.1 kilometers SW 18.4 mph / 29.6 km/h 26.5 mph / 42.6 km/h 0.00 in / 0.0 cm   Scattered Clouds
3:56 PM 35.4°F 1.9°C 20.5°F -6.4°C 55% 29.80 in / 1009.1 hPa 10.0 miles / 16.1 kilometers SW 17.3 mph / 27.8 km/h 23.0 mph / 37.0 km/h N/A   Partly Cloudy
4:33 PM 35.6°F 2.0°C 21.2°F -6.0°C 56% 29.80 in / 1009.1 hPa 10.0 miles / 16.1 kilometers SW 16.1 mph / 25.9 km/h 21.9 mph / 35.2 km/h N/A Rain Light Rain
4:43 PM 35.6°F 2.0°C 21.2°F -6.0°C 56% 29.80 in / 1009.1 hPa 10.0 miles / 16.1 kilometers SW 16.1 mph / 25.9 km/h 24.2 mph / 38.9 km/h N/A Rain Light Rain
4:45 PM 35.6°F 2.0°C 21.2°F -6.0°C 56% 29.80 in / 1009.1 hPa 10.0 miles / 16.1 kilometers SW 19.6 mph / 31.5 km/h 25.3 mph / 40.7 km/h N/A   Partly Cloudy
4:56 PM 35.6°F 2.0°C 22.6°F -5.2°C 59% 29.79 in / 1008.8 hPa 10.0 miles / 16.1 kilometers SW 21.9 mph / 35.2 km/h 34.5 mph / 55.6 km/h 0.00 in / 0.0 cm   Partly Cloudy
5:23 PM 35.6°F 2.0°C 24.8°F -4.0°C 65% 29.81 in / 1009.2 hPa 10.0 miles / 16.1 kilometers SW 12.7 mph / 20.4 km/h 21.9 mph / 35.2 km/h N/A Snow Light Snow
5:35 PM 35.6°F 2.0°C 24.8°F -4.0°C 65% 29.81 in / 1009.2 hPa 10.0 miles / 16.1 kilometers WSW 8.1 mph / 13.0 km/h 17.3 mph / 27.8 km/h N/A Snow Light Snow
5:45 PM 35.6°F 2.0°C 24.8°F -4.0°C 65% 29.81 in / 1009.5 hPa 10.0 miles / 16.1 kilometers NW 8.1 mph / 13.0 km/h - N/A   Mostly Cloudy
5:48 PM 35.6°F 2.0°C 26.6°F -3.0°C 70% 29.81 in / 1009.5 hPa 10.0 miles / 16.1 kilometers NW 12.7 mph / 20.4 km/h 19.6 mph / 31.5 km/h N/A   Mostly Cloudy
5:49 PM 35.6°F 2.0°C 28.4°F -2.0°C 75% 29.81 in / 1009.5 hPa 10.0 miles / 16.1 kilometers WNW 13.8 mph / 22.2 km/h 19.6 mph / 31.5 km/h N/A Snow Light Snow
5:56 PM 33.6°F 0.9°C 29.7°F -1.3°C 85% 29.81 in / 1009.5 hPa 10.0 miles / 16.1 kilometers WNW 9.2 mph / 14.8 km/h 19.6 mph / 31.5 km/h 0.00 in / 0.0 cm Snow Light Snow
6:01 PM 33.8°F 1.0°C 28.4°F -2.0°C 81% 29.81 in / 1009.5 hPa 7.0 miles / 11.3 kilometers WNW 6.9 mph / 11.1 km/h 18.4 mph / 29.6 km/h N/A Snow Light Snow
6:09 PM 32.0°F 0.0°C 28.4°F -2.0°C 87% 29.82 in / 1009.6 hPa 8.0 miles / 12.9 kilometers WNW 9.2 mph / 14.8 km/h - N/A Snow Light Snow
6:19 PM 32.0°F 0.0°C 30.2°F -1.0°C 93% 29.83 in / 1009.9 hPa 3.0 miles / 4.8 kilometers West 11.5 mph / 18.5 km/h 18.4 mph / 29.6 km/h N/A Snow Light Snow
6:29 PM 32.0°F 0.0°C 28.4°F -2.0°C 87% 29.82 in / 1009.6 hPa 6.0 miles / 9.7 kilometers West 5.8 mph / 9.3 km/h 17.3 mph / 27.8 km/h N/A Snow Light Snow
6:39 PM 32.0°F 0.0°C 28.4°F -2.0°C 87% 29.82 in / 1009.6 hPa 10.0 miles / 16.1 kilometers West 8.1 mph / 13.0 km/h - N/A Snow Light Snow
6:56 PM 31.8°F -0.1°C 28.9°F -1.7°C 89% 29.83 in / 1009.9 hPa 10.0 miles / 16.1 kilometers West 9.2 mph / 14.8 km/h - 0.00 in / 0.0 cm Snow Light Snow
7:06 PM 32.0°F 0.0°C 30.2°F -1.0°C 93% 29.82 in / 1009.6 hPa 3.0 miles / 4.8 kilometers WNW 6.9 mph / 11.1 km/h - N/A Snow Light Snow
7:16 PM 32.0°F 0.0°C 30.2°F -1.0°C 93% 29.82 in / 1009.6 hPa 1.2 miles / 2.0 kilometers West 9.2 mph / 14.8 km/h - N/A Snow Light Snow
7:26 PM 32.0°F 0.0°C 30.2°F -1.0°C 93% 29.83 in / 1009.9 hPa 1.4 miles / 2.2 kilometers West 10.4 mph / 16.7 km/h - N/A Snow Light Snow
7:31 PM 32.0°F 0.0°C 30.2°F -1.0°C 93% 29.83 in / 1009.9 hPa 1.0 miles / 1.6 kilometers West 11.5 mph / 18.5 km/h - N/A Snow Light Snow
7:36 PM 32.0°F 0.0°C 30.2°F -1.0°C 93% 29.82 in / 1009.6 hPa 0.6 miles / 1.0 kilometers West 9.2 mph / 14.8 km/h - N/A Snow Snow
7:46 PM 32.0°F 0.0°C 30.2°F -1.0°C 93% 29.83 in / 1009.9 hPa 0.4 miles / 0.6 kilometers West 12.7 mph / 20.4 km/h - N/A Snow Snow
7:51 PM 32.0°F 0.0°C 30.2°F -1.0°C 93% 29.82 in / 1009.6 hPa 0.4 miles / 0.6 kilometers West 10.4 mph / 16.7 km/h 18.4 mph / 29.6 km/h N/A Snow Snow
7:56 PM 31.8°F -0.1°C 30.6°F -0.8°C 95% 29.82 in / 1009.6 hPa 0.5 miles / 0.8 kilometers WSW 9.2 mph / 14.8 km/h 18.4 mph / 29.6 km/h 0.00 in / 0.0 cm Snow Snow
8:01 PM 32.0°F 0.0°C 30.2°F -1.0°C 93% 29.82 in / 1009.6 hPa 1.4 miles / 2.2 kilometers WSW 8.1 mph / 13.0 km/h - N/A Snow Light Snow
8:06 PM 32.0°F 0.0°C 30.2°F -1.0°C 93% 29.82 in / 1009.6 hPa 1.5 miles / 2.4 kilometers West 8.1 mph / 13.0 km/h - N/A Snow Light Snow
8:11 PM 32.0°F 0.0°C 30.2°F -1.0°C 93% 29.82 in / 1009.6 hPa 0.8 miles / 1.2 kilometers WSW 10.4 mph / 16.7 km/h 17.3 mph / 27.8 km/h N/A Snow Light Snow
8:16 PM 32.0°F 0.0°C 30.2°F -1.0°C 93% 29.81 in / 1009.2 hPa 0.6 miles / 1.0 kilometers West 12.7 mph / 20.4 km/h 24.2 mph / 38.9 km/h N/A Snow Snow
8:21 PM 32.0°F 0.0°C 32.0°F 0.0°C 100% 29.81 in / 1009.2 hPa 1.2 miles / 2.0 kilometers West 10.4 mph / 16.7 km/h 24.2 mph / 38.9 km/h N/A Snow Light Snow
8:26 PM 32.0°F 0.0°C 32.0°F 0.0°C 100% 29.81 in / 1009.2 hPa 4.0 miles / 6.4 kilometers WSW 5.8 mph / 9.3 km/h - N/A Snow Light Snow
8:39 PM 32.0°F 0.0°C 30.2°F -1.0°C 93% 29.83 in / 1009.9 hPa 2.8 miles / 4.4 kilometers West 10.4 mph / 16.7 km/h 18.4 mph / 29.6 km/h N/A Snow Light Snow
8:44 PM 32.0°F 0.0°C 32.0°F 0.0°C 100% 29.82 in / 1009.6 hPa 0.6 miles / 1.0 kilometers West 6.9 mph / 11.1 km/h 18.4 mph / 29.6 km/h N/A Snow Snow
8:49 PM 32.0°F 0.0°C 30.2°F -1.0°C 93% 29.81 in / 1009.5 hPa 0.9 miles / 1.4 kilometers WSW 6.9 mph / 11.1 km/h - N/A Snow Light Snow
8:54 PM 32.0°F 0.0°C 30.2°F -1.0°C 93% 29.81 in / 1009.5 hPa 2.5 miles / 4.0 kilometers West 9.2 mph / 14.8 km/h - N/A Snow Light Snow
8:56 PM 32.0°F 0.0°C 30.4°F -0.9°C 94% 29.81 in / 1009.5 hPa 2.8 miles / 4.4 kilometers West 11.5 mph / 18.5 km/h 17.3 mph / 27.8 km/h 0.00 in / 0.0 cm Snow Light Snow
9:01 PM 32.0°F 0.0°C 30.2°F -1.0°C 93% 29.81 in / 1009.5 hPa 3.0 miles / 4.8 kilometers WNW 6.9 mph / 11.1 km/h 19.6 mph / 31.5 km/h N/A Snow Light Snow
9:06 PM 32.0°F 0.0°C 30.2°F -1.0°C 93% 29.79 in / 1008.7 hPa 1.5 miles / 2.4 kilometers West 6.9 mph / 11.1 km/h 19.6 mph / 31.5 km/h N/A Snow Light Snow
9:11 PM 32.0°F 0.0°C 30.2°F -1.0°C 93% 29.78 in / 1008.4 hPa 0.9 miles / 1.4 kilometers WSW 11.5 mph / 18.5 km/h - N/A Snow Light Snow
9:16 PM 32.0°F 0.0°C 30.2°F -1.0°C 93% 29.81 in / 1009.2 hPa 3.0 miles / 4.8 kilometers WSW 10.4 mph / 16.7 km/h 25.3 mph / 40.7 km/h N/A Snow Light Snow
9:21 PM 32.0°F 0.0°C 30.2°F -1.0°C 93% 29.81 in / 1009.2 hPa 8.0 miles / 12.9 kilometers SW 9.2 mph / 14.8 km/h 25.3 mph / 40.7 km/h N/A Snow Light Snow
9:25 PM 32.0°F 0.0°C 30.2°F -1.0°C 93% 29.81 in / 1009.2 hPa 10.0 miles / 16.1 kilometers SSW 9.2 mph / 14.8 km/h - N/A   Mostly Cloudy
9:49 PM 33.8°F 1.0°C 30.2°F -1.0°C 87% 29.79 in / 1008.7 hPa 10.0 miles / 16.1 kilometers West 9.2 mph / 14.8 km/h - N/A Snow Light Snow
9:50 PM 33.8°F 1.0°C 30.2°F -1.0°C 87% 29.79 in / 1008.7 hPa 10.0 miles / 16.1 kilometers West 9.2 mph / 14.8 km/h - N/A Snow Light Snow
9:56 PM 33.8°F 1.0°C 30.4°F -0.9°C 87% 29.80 in / 1009.0 hPa 5.0 miles / 8.0 kilometers West 15.0 mph / 24.1 km/h 25.3 mph / 40.7 km/h 0.00 in / 0.0 cm Snow Light Snow
10:01 PM 32.0°F 0.0°C 30.2°F -1.0°C 93% 29.79 in / 1008.7 hPa 1.0 miles / 1.6 kilometers WSW 11.5 mph / 18.5 km/h 25.3 mph / 40.7 km/h N/A Snow Light Snow
10:06 PM 32.0°F 0.0°C 30.2°F -1.0°C 93% 29.79 in / 1008.7 hPa 1.0 miles / 1.6 kilometers West 19.6 mph / 31.5 km/h 28.8 mph / 46.3 km/h N/A Snow Light Snow
10:14 PM 32.0°F 0.0°C 30.2°F -1.0°C 93% 29.79 in / 1008.7 hPa 0.8 miles / 1.2 kilometers West 16.1 mph / 25.9 km/h 29.9 mph / 48.2 km/h N/A Snow Light Snow
10:25 PM 32.0°F 0.0°C 30.2°F -1.0°C 93% 29.81 in / 1009.5 hPa 0.9 miles / 1.4 kilometers West 11.5 mph / 18.5 km/h 28.8 mph / 46.3 km/h N/A Snow Light Snow
10:30 PM 32.0°F 0.0°C 30.2°F -1.0°C 93% 29.78 in / 1008.4 hPa 1.1 miles / 1.8 kilometers West 18.4 mph / 29.6 km/h 27.6 mph / 44.4 km/h N/A Snow Light Snow
10:35 PM 33.8°F 1.0°C 28.4°F -2.0°C 81% 29.79 in / 1008.7 hPa 1.2 miles / 2.0 kilometers WSW 17.3 mph / 27.8 km/h 27.6 mph / 44.4 km/h N/A Snow Light Snow
10:40 PM 33.8°F 1.0°C 30.2°F -1.0°C 87% 29.79 in / 1008.7 hPa 1.8 miles / 2.8 kilometers WSW 19.6 mph / 31.5 km/h 27.6 mph / 44.4 km/h N/A Snow Light Snow
10:45 PM 33.8°F 1.0°C 30.2°F -1.0°C 87% 29.78 in / 1008.4 hPa 2.2 miles / 3.6 kilometers WSW 13.8 mph / 22.2 km/h 25.3 mph / 40.7 km/h N/A Snow Light Snow
10:50 PM 33.8°F 1.0°C 30.2°F -1.0°C 87% 29.79 in / 1008.7 hPa 5.0 miles / 8.0 kilometers WSW 12.7 mph / 20.4 km/h 24.2 mph / 38.9 km/h N/A Snow Light Snow
10:56 PM 33.4°F 0.8°C 30.6°F -0.8°C 89% 29.79 in / 1008.7 hPa 5.0 miles / 8.0 kilometers WSW 13.8 mph / 22.2 km/h 23.0 mph / 37.0 km/h 0.00 in / 0.0 cm Snow Light Snow
11:01 PM 33.8°F 1.0°C 30.2°F -1.0°C 87% 29.79 in / 1008.7 hPa 4.0 miles / 6.4 kilometers SW 11.5 mph / 18.5 km/h 23.0 mph / 37.0 km/h N/A Snow Light Snow
11:06 PM 33.8°F 1.0°C 30.2°F -1.0°C 87% 29.79 in / 1008.7 hPa 5.0 miles / 8.0 kilometers SW 12.7 mph / 20.4 km/h 23.0 mph / 37.0 km/h N/A Snow Light Snow
11:18 PM 33.8°F 1.0°C 30.2°F -1.0°C 87% 29.79 in / 1008.7 hPa 10.0 miles / 16.1 kilometers WSW 11.5 mph / 18.5 km/h - N/A Rain Light Rain
11:19 PM 33.8°F 1.0°C 30.2°F -1.0°C 87% 29.79 in / 1008.7 hPa 10.0 miles / 16.1 kilometers WSW 10.4 mph / 16.7 km/h - N/A Rain Light Rain
11:25 PM 33.8°F 1.0°C 30.2°F -1.0°C 87% 29.79 in / 1008.7 hPa 9.0 miles / 14.5 kilometers WSW 10.4 mph / 16.7 km/h - N/A Snow Light Snow
11:30 PM 33.8°F 1.0°C 30.2°F -1.0°C 87% 29.79 in / 1008.7 hPa 7.0 miles / 11.3 kilometers WSW 10.4 mph / 16.7 km/h 17.3 mph / 27.8 km/h N/A Snow Light Snow
11:35 PM 33.8°F 1.0°C 30.2°F -1.0°C 87% 29.78 in / 1008.4 hPa 7.0 miles / 11.3 kilometers WSW 11.5 mph / 18.5 km/h 17.3 mph / 27.8 km/h N/A Snow Light Snow
11:40 PM 33.8°F 1.0°C 30.2°F -1.0°C 87% 29.79 in / 1008.7 hPa 10.0 miles / 16.1 kilometers WSW 9.2 mph / 14.8 km/h 17.3 mph / 27.8 km/h N/A Snow Light Snow
11:42 PM 33.8°F 1.0°C 30.2°F -1.0°C 87% 29.79 in / 1008.7 hPa 10.0 miles / 16.1 kilometers WSW 9.2 mph / 14.8 km/h - N/A   Mostly Cloudy
11:47 PM 33.8°F 1.0°C 30.2°F -1.0°C 87% 29.79 in / 1008.7 hPa 10.0 miles / 16.1 kilometers WSW 5.8 mph / 9.3 km/h - N/A   Mostly Cloudy
11:48 PM 33.8°F 1.0°C 30.2°F -1.0°C 87% 29.79 in / 1008.7 hPa 10.0 miles / 16.1 kilometers WSW 5.8 mph / 9.3 km/h - N/A Rain Light Rain
11:56 PM 33.6°F 0.9°C 29.8°F -1.2°C 86% 29.79 in / 1008.7 hPa 10.0 miles / 16.1 kilometers West 6.9 mph / 11.1 km/h - 0.00 in / 0.0 cm Snow Light Snow